Time;durP1;ratioP1;P1;durP2;ratioP2;P2;SDS_P1;SDS_P2;PMS_P1;PMS_P2;Temp;Humidity;BMP_temperature;BMP_pressure;BME280_temperature;BME280_humidity;BME280_pressure;Samples;Min_cycle;Max_cycle;Signal;HPM_P1;HPM_P2
2023/11/22 00:01:34;;;;;;;3.67;2.60;;;3.40;99.90;;;;;;15247432;23;20290;-81
2023/11/22 00:07:36;;;;;;;4.88;2.63;;;3.30;99.90;;;;;;15252575;23;20049;-80
2023/11/22 00:13:38;;;;;;;5.75;2.78;;;3.30;99.90;;;;;;15249943;23;20032;-80
2023/11/22 00:19:40;;;;;;;5.03;2.63;;;3.40;99.90;;;;;;15250594;23;20049;-80
2023/11/22 00:25:42;;;;;;;4.30;2.70;;;3.20;99.90;;;;;;15247664;23;20682;-80
2023/11/22 00:31:44;;;;;;;7.55;3.15;;;3.20;99.90;;;;;;15248242;23;20701;-80
2023/11/22 00:37:47;;;;;;;4.68;2.47;;;3.20;99.90;;;;;;15247972;23;20090;-80
2023/11/22 00:43:48;;;;;;;4.50;2.55;;;3.10;99.90;;;;;;15249755;23;20025;-80
2023/11/22 00:49:50;;;;;;;3.60;2.33;;;3.00;99.90;;;;;;15250082;23;20486;-80
2023/11/22 00:55:52;;;;;;;4.85;2.83;;;3.20;99.90;;;;;;15246728;23;20029;-80
2023/11/22 01:01:55;;;;;;;4.55;2.85;;;3.00;99.90;;;;;;15244468;23;20025;-80
2023/11/22 01:07:57;;;;;;;4.63;2.78;;;3.10;99.90;;;;;;15244854;23;20036;-81
2023/11/22 01:13:58;;;;;;;4.63;2.40;;;3.20;99.90;;;;;;15247660;23;20033;-80
2023/11/22 01:20:02;;;;;;;4.68;2.95;;;3.40;99.90;;;;;;15246139;23;20030;-80
2023/11/22 01:26:05;;;;;;;4.55;2.83;;;3.10;99.90;;;;;;15244408;23;20061;-81
2023/11/22 01:32:08;;;;;;;4.32;2.50;;;2.90;99.90;;;;;;15246862;23;20026;-81
2023/11/22 01:38:10;;;;;;;3.30;2.47;;;2.50;99.90;;;;;;15242043;23;20029;-80
2023/11/22 01:44:12;;;;;;;4.55;2.75;;;2.40;99.90;;;;;;15243881;23;20025;-81
2023/11/22 01:50:14;;;;;;;4.45;2.60;;;2.30;99.90;;;;;;15247847;23;20025;-80
2023/11/22 01:56:17;;;;;;;5.15;2.70;;;2.40;99.90;;;;;;15242800;23;20036;-81
2023/11/22 02:02:20;;;;;;;4.75;2.88;;;2.30;99.90;;;;;;15242434;23;20021;-81
2023/11/22 02:08:22;;;;;;;6.57;2.67;;;2.20;99.90;;;;;;15246407;23;20036;-80
2023/11/22 02:14:24;;;;;;;6.35;2.70;;;2.30;99.90;;;;;;15244374;23;20026;-81
2023/11/22 02:20:26;;;;;;;4.25;2.72;;;2.30;99.90;;;;;;15241351;23;20057;-80
2023/11/22 02:26:28;;;;;;;5.03;3.13;;;2.20;99.90;;;;;;15244916;23;20048;-79
2023/11/22 02:32:31;;;;;;;5.65;2.80;;;2.10;99.90;;;;;;15242965;23;20049;-80
2023/11/22 02:38:34;;;;;;;5.05;3.08;;;2.00;99.90;;;;;;15250906;23;20029;-80
2023/11/22 02:44:36;;;;;;;5.25;2.90;;;2.00;99.90;;;;;;15244319;23;20024;-80
2023/11/22 02:50:39;;;;;;;4.63;2.70;;;2.00;99.90;;;;;;15248332;23;20030;-80
2023/11/22 02:56:41;;;;;;;6.88;2.70;;;2.00;99.90;;;;;;15247787;23;20025;-80
2023/11/22 03:02:43;;;;;;;5.07;2.72;;;1.90;99.90;;;;;;15241852;23;20025;-80
2023/11/22 03:08:45;;;;;;;5.15;2.67;;;2.40;99.90;;;;;;15240993;23;20018;-80
2023/11/22 03:14:47;;;;;;;4.95;3.00;;;2.50;99.90;;;;;;15247761;23;20088;-80
2023/11/22 03:20:53;;;;;;;7.70;3.08;;;2.30;99.90;;;;;;15245836;23;20018;-80
2023/11/22 03:26:58;;;;;;;3.22;2.50;;;2.50;99.90;;;;;;15249139;23;20021;-80
2023/11/22 03:33:00;;;;;;;5.47;3.20;;;2.60;99.90;;;;;;15245142;23;20112;-80
2023/11/22 03:39:02;;;;;;;4.93;3.03;;;2.30;99.90;;;;;;15251259;23;20022;-80
2023/11/22 03:45:06;;;;;;;6.57;2.75;;;1.90;99.90;;;;;;15249191;23;20347;-79
2023/11/22 03:51:08;;;;;;;4.78;2.80;;;1.80;99.90;;;;;;15241514;23;20026;-79
2023/11/22 03:57:10;;;;;;;7.03;3.40;;;1.50;99.90;;;;;;15240015;23;20533;-80
2023/11/22 04:03:12;;;;;;;6.13;3.00;;;1.40;99.90;;;;;;15246726;23;20029;-80
2023/11/22 04:09:16;;;;;;;4.95;3.13;;;1.50;99.90;;;;;;15247586;23;20029;-80
2023/11/22 04:15:18;;;;;;;5.43;3.30;;;1.40;99.90;;;;;;15250530;23;20017;-80
2023/11/22 04:21:21;;;;;;;6.07;3.22;;;1.50;99.90;;;;;;15254592;23;20021;-80
2023/11/22 04:27:23;;;;;;;5.80;3.30;;;1.50;99.90;;;;;;15252236;23;20025;-80
2023/11/22 04:33:27;;;;;;;5.43;3.20;;;1.50;99.90;;;;;;15256599;23;20109;-80
2023/11/22 04:39:30;;;;;;;5.97;3.22;;;1.50;99.90;;;;;;15246832;22;20271;-80
2023/11/22 04:45:32;;;;;;;5.07;3.10;;;1.40;99.90;;;;;;15248779;23;20467;-80
2023/11/22 04:51:34;;;;;;;7.22;3.45;;;1.30;99.90;;;;;;15245669;23;20022;-80
2023/11/22 04:57:36;;;;;;;5.47;2.97;;;1.30;99.90;;;;;;15243154;23;20340;-80
2023/11/22 05:03:38;;;;;;;6.90;3.53;;;1.70;99.90;;;;;;15245743;23;20021;-80
2023/11/22 05:09:40;;;;;;;9.23;3.97;;;1.30;99.90;;;;;;15245322;23;20030;-80
2023/11/22 05:15:42;;;;;;;8.57;3.40;;;1.30;99.90;;;;;;15246799;23;20026;-80
2023/11/22 05:21:44;;;;;;;5.18;3.30;;;1.40;99.90;;;;;;15249122;23;20028;-80
2023/11/22 05:27:46;;;;;;;5.10;3.10;;;1.70;99.90;;;;;;15246228;23;20032;-80
2023/11/22 05:33:48;;;;;;;7.60;3.45;;;2.00;99.90;;;;;;15249038;23;20036;-80
2023/11/22 05:39:50;;;;;;;6.20;3.65;;;2.00;99.90;;;;;;15256646;23;20030;-79
2023/11/22 05:45:52;;;;;;;6.50;3.70;;;1.70;99.90;;;;;;15251263;23;20025;-80
2023/11/22 05:51:54;;;;;;;5.30;3.25;;;1.50;99.90;;;;;;15249143;23;20048;-80
2023/11/22 05:57:56;;;;;;;6.93;4.18;;;1.50;99.90;;;;;;15238021;23;20044;-80
2023/11/22 06:03:58;;;;;;;7.93;5.18;;;0.90;99.90;;;;;;15244533;23;20022;-80
2023/11/22 06:10:02;;;;;;;10.20;4.30;;;0.80;99.90;;;;;;15248764;23;20100;-80
2023/11/22 06:16:04;;;;;;;7.85;3.85;;;0.80;99.90;;;;;;15246122;23;20026;-80
2023/11/22 06:22:07;;;;;;;7.75;4.50;;;0.80;99.90;;;;;;15247846;23;20417;-80
2023/11/22 06:28:09;;;;;;;7.35;3.83;;;0.80;99.90;;;;;;15245526;23;20704;-80
2023/11/22 06:34:12;;;;;;;7.97;4.35;;;1.00;99.90;;;;;;15260723;23;20414;-80
2023/11/22 06:40:14;;;;;;;5.88;3.60;;;1.20;99.90;;;;;;15285777;23;20026;-80
2023/11/22 06:46:16;;;;;;;7.03;4.15;;;1.30;99.90;;;;;;15267583;23;20021;-80
2023/11/22 06:52:18;;;;;;;74.15;25.55;;;1.40;99.90;;;;;;15262895;23;20386;-80
2023/11/22 06:58:20;;;;;;;36.22;14.40;;;1.10;99.90;;;;;;15244880;23;20083;-80
2023/11/22 07:04:23;;;;;;;9.38;5.53;;;1.00;99.90;;;;;;15253603;23;20032;-80
2023/11/22 07:10:26;;;;;;;6.95;4.20;;;1.20;99.90;;;;;;15255671;23;20029;-81
2023/11/22 07:16:28;;;;;;;7.40;4.47;;;1.00;99.90;;;;;;15266434;23;20061;-80
2023/11/22 07:22:30;;;;;;;7.13;4.03;;;1.10;99.90;;;;;;15264506;23;20514;-79
2023/11/22 07:28:32;;;;;;;8.65;4.38;;;1.20;99.90;;;;;;15259139;23;20032;-80
2023/11/22 07:34:35;;;;;;;9.93;4.95;;;1.30;99.90;;;;;;15278373;23;20035;-81
2023/11/22 07:40:37;;;;;;;9.40;4.65;;;1.50;99.90;;;;;;15291840;23;20101;-78
2023/11/22 07:46:43;;;;;;;7.53;4.35;;;1.60;99.90;;;;;;15262027;23;20026;-80
2023/11/22 07:52:46;;;;;;;6.45;3.90;;;2.00;99.90;;;;;;15248984;23;20455;-80
2023/11/22 07:58:48;;;;;;;7.03;3.58;;;2.30;99.90;;;;;;15246121;23;20036;-80
2023/11/22 08:04:51;;;;;;;7.68;4.30;;;2.50;99.90;;;;;;15250661;23;20033;-79
2023/11/22 08:10:53;;;;;;;8.57;4.22;;;2.60;99.90;;;;;;15244748;23;20030;-80
2023/11/22 08:16:56;;;;;;;6.93;3.88;;;2.70;99.90;;;;;;15251267;23;20029;-80
2023/11/22 08:22:58;;;;;;;7.50;5.05;;;2.90;99.90;;;;;;15249957;23;20474;-80
2023/11/22 08:29:00;;;;;;;8.02;3.72;;;3.20;99.90;;;;;;15255831;23;20474;-80
2023/11/22 08:35:07;;;;;;;5.50;3.58;;;3.40;99.90;;;;;;15253813;23;20025;-81
2023/11/22 08:41:13;;;;;;;5.72;3.72;;;3.60;99.90;;;;;;15266784;23;20045;-81
2023/11/22 08:47:15;;;;;;;6.43;3.83;;;3.70;99.90;;;;;;15266655;23;20024;-81
2023/11/22 08:53:19;;;;;;;5.50;3.38;;;3.80;99.90;;;;;;15264315;23;20294;-81
2023/11/22 08:59:21;;;;;;;7.43;4.50;;;3.70;99.90;;;;;;15294817;23;20815;-80
2023/11/22 09:05:23;;;;;;;9.90;4.18;;;3.40;99.90;;;;;;15261670;23;20032;-81
2023/11/22 09:11:25;;;;;;;9.77;5.43;;;3.20;99.90;;;;;;15253787;23;20026;-81
2023/11/22 09:17:27;;;;;;;7.72;4.57;;;3.10;99.90;;;;;;15259483;23;20071;-80
2023/11/22 09:23:29;;;;;;;8.63;5.40;;;3.40;99.90;;;;;;15260515;23;20033;-80
2023/11/22 09:29:32;;;;;;;9.15;4.47;;;3.30;99.90;;;;;;15241895;23;20021;-80
2023/11/22 09:35:36;;;;;;;7.40;4.75;;;3.40;99.90;;;;;;15254704;23;20446;-79
2023/11/22 09:41:39;;;;;;;10.27;5.90;;;3.50;99.90;;;;;;15226619;23;20096;-80
2023/11/22 09:47:41;;;;;;;9.32;5.68;;;3.70;99.90;;;;;;15262927;23;20036;-80
2023/11/22 09:53:43;;;;;;;10.02;5.05;;;3.70;99.90;;;;;;15271951;23;20025;-80
2023/11/22 09:59:45;;;;;;;7.45;4.95;;;3.80;99.90;;;;;;15270733;23;20076;-80
2023/11/22 10:05:47;;;;;;;9.10;5.68;;;3.80;99.90;;;;;;15287884;23;20021;-80
2023/11/22 10:11:50;;;;;;;11.55;5.18;;;3.70;99.90;;;;;;15286450;23;20117;-79
2023/11/22 10:17:56;;;;;;;9.70;4.35;;;3.70;99.90;;;;;;15251158;23;20033;-80
2023/11/22 10:24:03;;;;;;;8.07;4.97;;;3.90;99.90;;;;;;15248732;23;20022;-81
2023/11/22 10:30:06;;;;;;;7.63;4.75;;;4.00;99.90;;;;;;15262762;23;20030;-81
2023/11/22 10:36:09;;;;;;;8.23;4.50;;;4.10;99.90;;;;;;15259817;23;20448;-80
2023/11/22 10:42:11;;;;;;;6.28;4.00;;;4.10;99.90;;;;;;15263100;23;20128;-80
2023/11/22 10:48:17;;;;;;;7.78;4.63;;;4.10;99.90;;;;;;15276405;23;20026;-80
2023/11/22 10:54:22;;;;;;;7.53;4.20;;;3.80;99.90;;;;;;15255787;23;20475;-80
2023/11/22 11:00:27;;;;;;;7.13;4.25;;;4.10;99.90;;;;;;15312781;23;20036;-80
2023/11/22 11:06:33;;;;;;;6.05;3.70;;;4.20;99.90;;;;;;15265709;23;20396;-80
2023/11/22 11:12:35;;;;;;;7.45;4.28;;;4.30;99.90;;;;;;15242844;23;20036;-80
2023/11/22 11:18:38;;;;;;;7.82;3.85;;;4.40;99.90;;;;;;15251174;23;20025;-80
2023/11/22 11:24:41;;;;;;;6.57;4.20;;;4.50;99.90;;;;;;15248927;23;20021;-80
2023/11/22 11:30:43;;;;;;;9.15;3.78;;;4.50;99.90;;;;;;15254278;23;20025;-80
2023/11/22 11:36:54;;;;;;;3.53;2.10;;;4.10;99.90;;;;;;15242658;23;20026;-80
2023/11/22 11:42:56;;;;;;;5.45;2.00;;;4.50;99.90;;;;;;15268137;23;20351;-80
2023/11/22 11:48:58;;;;;;;4.43;2.28;;;4.90;99.90;;;;;;15259011;23;20022;-81
2023/11/22 11:55:00;;;;;;;4.13;2.25;;;5.10;99.90;;;;;;15251716;23;20029;-80
2023/11/22 12:01:02;;;;;;;3.88;1.80;;;5.40;99.90;;;;;;15265014;23;20036;-80
2023/11/22 12:07:08;;;;;;;3.63;1.60;;;4.70;99.90;;;;;;15265623;23;20021;-80
2023/11/22 12:13:10;;;;;;;2.92;1.40;;;4.20;99.90;;;;;;15275538;23;20459;-81
2023/11/22 12:19:20;;;;;;;5.40;1.15;;;4.30;99.90;;;;;;15281857;23;20026;-80
2023/11/22 12:25:22;;;;;;;2.55;1.50;;;4.00;99.90;;;;;;15280111;23;20953;-81
2023/11/22 12:31:29;;;;;;;2.30;1.40;;;4.30;99.90;;;;;;15251141;22;20036;-80
2023/11/22 12:37:31;;;;;;;2.85;1.48;;;4.20;99.90;;;;;;15250251;23;20343;-81
2023/11/22 12:43:34;;;;;;;2.35;1.20;;;4.10;72.00;;;;;;15247255;23;20022;-80
2023/11/22 12:49:47;;;;;;;3.22;1.35;;;4.00;1.00;;;;;;15261664;23;20022;-80
2023/11/22 12:55:50;;;;;;;2.33;1.30;;;4.20;99.90;;;;;;15257753;23;20058;-81
2023/11/22 13:01:52;;;;;;;3.20;1.30;;;4.50;99.90;;;;;;15251119;23;20032;-81
2023/11/22 13:07:54;;;;;;;4.00;1.70;;;4.70;99.90;;;;;;15256980;23;20032;-80
2023/11/22 13:13:56;;;;;;;2.95;1.45;;;4.70;99.90;;;;;;15262277;23;20036;-81
2023/11/22 13:19:58;;;;;;;2.53;1.50;;;4.30;99.90;;;;;;15257599;23;20037;-80
2023/11/22 13:26:01;;;;;;;3.63;2.10;;;4.20;99.90;;;;;;15255648;23;20025;-81
2023/11/22 13:32:04;;;;;;;3.45;1.85;;;4.30;99.90;;;;;;15273866;23;20463;-79
2023/11/22 13:38:12;;;;;;;4.05;2.03;;;4.40;99.90;;;;;;15269086;23;20460;-80
2023/11/22 13:44:14;;;;;;;4.85;1.98;;;4.00;99.90;;;;;;15264294;23;20021;-81
2023/11/22 13:50:26;;;;;;;4.35;1.83;;;3.80;99.90;;;;;;15281267;23;20029;-80
2023/11/22 13:56:28;;;;;;;4.38;2.33;;;3.90;99.90;;;;;;15263823;23;20026;-80
2023/11/22 14:02:31;;;;;;;4.38;2.60;;;4.10;99.90;;;;;;15264227;23;20075;-80
2023/11/22 14:08:34;;;;;;;4.55;1.92;;;4.10;99.90;;;;;;15252728;23;20037;-81
2023/11/22 14:14:37;;;;;;;6.38;2.63;;;4.10;99.90;;;;;;15261738;23;20397;-81
2023/11/22 14:20:39;;;;;;;4.85;2.50;;;3.90;99.90;;;;;;15259729;23;20036;-81
2023/11/22 14:26:41;;;;;;;4.90;2.40;;;3.80;99.90;;;;;;15268007;23;20021;-81
2023/11/22 14:32:44;;;;;;;5.15;2.60;;;3.80;99.90;;;;;;15268855;23;20034;-81
2023/11/22 14:38:53;;;;;;;4.57;2.40;;;3.70;99.90;;;;;;15290206;23;20123;-80
2023/11/22 14:44:56;;;;;;;3.85;2.20;;;3.50;99.90;;;;;;15291516;23;20100;-80
2023/11/22 14:50:58;;;;;;;5.47;2.35;;;3.40;99.90;;;;;;15270643;23;20056;-80
2023/11/22 14:57:02;;;;;;;4.15;2.05;;;3.20;99.90;;;;;;15272767;23;20025;-80
2023/11/22 15:03:04;;;;;;;3.85;2.20;;;3.30;99.90;;;;;;15255879;23;20068;-81
2023/11/22 15:09:09;;;;;;;3.50;1.95;;;3.10;99.90;;;;;;15309950;23;20070;-81
2023/11/22 15:15:12;;;;;;;3.95;1.80;;;3.10;99.90;;;;;;15304725;23;20028;-81
2023/11/22 15:21:13;;;;;;;5.05;2.60;;;3.10;99.90;;;;;;15309151;23;20037;-80
2023/11/22 15:27:15;;;;;;;5.05;1.90;;;3.10;99.90;;;;;;15294382;23;20056;-80
2023/11/22 15:33:18;;;;;;;3.72;2.10;;;3.10;99.90;;;;;;15309548;23;20057;-81
2023/11/22 15:39:22;;;;;;;5.25;2.03;;;3.10;96.30;;;;;;15276080;23;20468;-81
2023/11/22 15:45:24;;;;;;;2.90;1.90;;;3.10;99.90;;;;;;15268309;23;20030;-81
2023/11/22 15:51:26;;;;;;;4.70;2.20;;;3.10;99.90;;;;;;15265243;23;20459;-81
2023/11/22 15:57:28;;;;;;;3.60;2.08;;;3.10;99.90;;;;;;15254911;23;20083;-81
2023/11/22 16:03:32;;;;;;;4.18;2.60;;;3.10;99.90;;;;;;15257262;23;20061;-81
2023/11/22 16:09:35;;;;;;;4.30;2.80;;;3.10;99.90;;;;;;15259259;23;20486;-81
2023/11/22 16:15:37;;;;;;;4.70;2.53;;;3.10;79.50;;;;;;15256229;23;20025;-79
2023/11/22 16:21:39;;;;;;;4.18;2.70;;;3.20;99.90;;;;;;15260287;23;20022;-79
2023/11/22 16:27:42;;;;;;;6.05;2.72;;;3.10;62.10;;;;;;15267412;23;20049;-83
2023/11/22 16:33:43;;;;;;;6.45;3.28;;;3.10;59.30;;;;;;15291829;23;20037;-80
2023/11/22 16:39:45;;;;;;;5.68;3.28;;;3.10;84.40;;;;;;15265539;23;20113;-81
2023/11/22 16:45:51;;;;;;;6.10;2.88;;;3.00;75.00;;;;;;15255764;23;20466;-81
2023/11/22 16:51:53;;;;;;;6.43;2.90;;;3.00;70.30;;;;;;15257607;23;20067;-81
2023/11/22 16:57:56;;;;;;;5.88;2.88;;;3.00;46.30;;;;;;15248681;23;20030;-81
2023/11/22 17:04:00;;;;;;;5.85;3.15;;;3.00;99.90;;;;;;15254243;23;20106;-81
2023/11/22 17:10:05;;;;;;;5.63;2.70;;;2.90;21.20;;;;;;15250437;23;20029;-80
2023/11/22 17:16:07;;;;;;;5.18;3.30;;;2.90;24.90;;;;;;15254912;23;20026;-81
2023/11/22 17:22:10;;;;;;;5.00;2.80;;;2.90;16.10;;;;;;15253611;23;20026;-83
2023/11/22 17:28:13;;;;;;;4.63;2.88;;;3.00;8.20;;;;;;15263559;23;20037;-80
2023/11/22 17:34:15;;;;;;;4.75;2.60;;;2.90;1.00;;;;;;15255652;23;20026;-82
2023/11/22 17:40:17;;;;;;;5.93;2.33;;;2.90;99.20;;;;;;15289805;23;20045;-80
2023/11/22 17:46:19;;;;;;;4.45;2.40;;;2.90;99.90;;;;;;15281887;23;20414;-82
2023/11/22 17:52:21;;;;;;;9.23;2.58;;;2.90;99.90;;;;;;15254314;23;20029;-82
2023/11/22 17:58:26;;;;;;;5.70;2.38;;;2.90;99.90;;;;;;15244501;23;20108;-81
2023/11/22 18:04:28;;;;;;;5.43;2.28;;;2.90;99.90;;;;;;15252194;23;20026;-84
2023/11/22 18:10:30;;;;;;;6.90;2.65;;;2.80;99.90;;;;;;15257468;23;20451;-81
2023/11/22 18:16:45;;;;;;;6.43;3.00;;;2.90;99.90;;;;;;15256102;23;20021;-81
2023/11/22 18:22:47;;;;;;;4.53;2.42;;;2.90;99.90;;;;;;15250357;23;20017;-81
2023/11/22 18:28:49;;;;;;;5.25;2.28;;;3.00;99.90;;;;;;15248157;23;20021;-81
2023/11/22 18:34:52;;;;;;;4.40;2.10;;;3.10;99.90;;;;;;15226822;23;20026;-81
2023/11/22 18:40:54;;;;;;;4.10;2.30;;;3.10;1.00;;;;;;15255946;23;20030;-81
2023/11/22 18:46:57;;;;;;;4.13;2.25;;;3.20;99.90;;;;;;15282561;23;20036;-84
2023/11/22 18:52:59;;;;;;;5.07;2.83;;;3.20;99.90;;;;;;15283831;23;20036;-82
2023/11/22 18:59:01;;;;;;;4.35;2.65;;;3.20;99.90;;;;;;15302037;23;20010;-83
2023/11/22 19:05:04;;;;;;;5.75;2.95;;;3.20;99.90;;;;;;15297622;23;20060;-81
2023/11/22 19:11:10;;;;;;;4.05;2.35;;;3.10;99.90;;;;;;15257180;23;20022;-80
2023/11/22 19:17:12;;;;;;;5.88;2.83;;;3.10;99.90;;;;;;15252922;23;20392;-81
2023/11/22 19:23:15;;;;;;;4.40;2.55;;;3.10;99.90;;;;;;15250187;23;20025;-81
2023/11/22 19:29:17;;;;;;;5.32;2.60;;;3.20;99.90;;;;;;15257126;23;20043;-80
2023/11/22 19:35:19;;;;;;;5.25;2.85;;;3.30;99.90;;;;;;15256505;23;20030;-81
2023/11/22 19:41:22;;;;;;;4.82;2.38;;;3.40;99.90;;;;;;15254027;23;20659;-80
2023/11/22 19:47:23;;;;;;;5.30;2.63;;;3.40;99.90;;;;;;15290189;23;20653;-81
2023/11/22 19:53:26;;;;;;;5.18;2.90;;;3.40;99.90;;;;;;15258587;23;20021;-80
2023/11/22 19:59:28;;;;;;;7.30;2.90;;;3.50;99.90;;;;;;15296398;23;20014;-80
2023/11/22 20:05:34;;;;;;;6.85;3.00;;;3.60;99.90;;;;;;15285570;23;20044;-82
2023/11/22 20:11:35;;;;;;;10.50;3.55;;;3.60;99.90;;;;;;15260150;23;20101;-82
2023/11/22 20:17:38;;;;;;;6.13;2.85;;;3.70;99.90;;;;;;15250346;23;20104;-84
2023/11/22 20:23:40;;;;;;;8.95;3.28;;;3.70;99.90;;;;;;15252582;23;20021;-84
2023/11/22 20:29:42;;;;;;;5.72;3.05;;;3.70;99.90;;;;;;15254425;23;20448;-84
2023/11/22 20:35:45;;;;;;;5.50;2.85;;;3.70;99.90;;;;;;15251694;23;20037;-83
2023/11/22 20:41:47;;;;;;;7.13;3.42;;;3.80;99.90;;;;;;15232260;23;20036;-85
2023/11/22 20:47:49;;;;;;;8.75;3.30;;;3.80;99.90;;;;;;15242932;23;20291;-81
2023/11/22 20:53:51;;;;;;;5.22;3.00;;;3.80;99.90;;;;;;15249379;23;20037;-81
2023/11/22 20:59:53;;;;;;;5.32;3.30;;;3.90;99.90;;;;;;15258125;23;20033;-81
2023/11/22 21:05:57;;;;;;;5.63;3.00;;;3.90;99.90;;;;;;15210586;22;20068;-82
2023/11/22 21:11:59;;;;;;;6.17;3.50;;;3.90;99.90;;;;;;15219087;23;20028;-84
2023/11/22 21:18:02;;;;;;;6.35;2.70;;;4.00;99.90;;;;;;15196003;23;20030;-83
2023/11/22 21:24:04;;;;;;;6.05;3.10;;;4.00;99.90;;;;;;15159843;23;20109;-85
2023/11/22 21:30:11;;;;;;;4.10;2.50;;;4.10;99.90;;;;;;15155183;23;20029;-81
2023/11/22 21:36:14;;;;;;;7.38;3.25;;;4.10;99.90;;;;;;15134127;23;20029;-82
2023/11/22 21:42:16;;;;;;;6.20;2.80;;;4.20;99.90;;;;;;15159344;23;20118;-83
2023/11/22 21:48:18;;;;;;;6.78;3.30;;;4.20;99.90;;;;;;15132463;23;20026;-80
2023/11/22 21:54:20;;;;;;;7.82;3.17;;;4.30;99.90;;;;;;15178366;23;20099;-81
2023/11/22 22:00:22;;;;;;;8.05;3.50;;;4.40;99.90;;;;;;15155854;23;20460;-81
2023/11/22 22:06:24;;;;;;;9.15;3.28;;;4.50;99.90;;;;;;15246972;23;20029;-83
2023/11/22 22:12:26;;;;;;;6.40;3.33;;;4.50;99.90;;;;;;15250742;23;20033;-83
2023/11/22 22:18:28;;;;;;;7.18;3.53;;;4.60;99.90;;;;;;15252355;23;20025;-84
2023/11/22 22:24:30;;;;;;;8.32;3.75;;;4.60;99.90;;;;;;15245708;23;20021;-80
2023/11/22 22:30:33;;;;;;;6.72;3.42;;;4.70;99.90;;;;;;15245401;23;20188;-79
2023/11/22 22:36:35;;;;;;;8.18;3.85;;;4.70;99.90;;;;;;15251738;23;20167;-80
2023/11/22 22:42:38;;;;;;;6.15;3.53;;;4.70;99.90;;;;;;15254350;23;20026;-83
2023/11/22 22:48:40;;;;;;;7.47;3.97;;;4.80;99.90;;;;;;15247757;23;20022;-82
2023/11/22 22:54:42;;;;;;;6.88;3.45;;;4.80;99.90;;;;;;15250445;23;20036;-84
2023/11/22 23:00:46;;;;;;;10.90;4.13;;;4.80;99.90;;;;;;15243464;23;20029;-81
2023/11/22 23:06:49;;;;;;;13.67;4.57;;;4.90;99.90;;;;;;15246197;23;20026;-80
2023/11/22 23:12:54;;;;;;;8.43;4.25;;;4.90;99.90;;;;;;15248999;23;20037;-84
2023/11/22 23:18:56;;;;;;;14.05;4.10;;;5.00;99.90;;;;;;15255217;23;20017;-80
2023/11/22 23:25:09;;;;;;;10.05;4.30;;;5.00;99.90;;;;;;15249018;23;20053;-80
2023/11/22 23:31:12;;;;;;;11.82;5.28;;;5.00;99.90;;;;;;15251574;23;20063;-81
2023/11/22 23:37:14;;;;;;;10.60;4.95;;;5.10;99.90;;;;;;15254957;23;20032;-82
2023/11/22 23:43:16;;;;;;;10.80;5.40;;;5.00;99.90;;;;;;15253215;23;20018;-83
2023/11/22 23:49:18;;;;;;;13.25;5.90;;;5.10;99.90;;;;;;15252388;23;20021;-79
2023/11/22 23:55:20;;;;;;;11.75;5.15;;;5.00;99.90;;;;;;15250556;23;20439;-80
